createdAt,value
2019-05-26T00:02:15.275Z,1.47
2019-05-26T00:04:43.517Z,1.50
2019-05-26T00:07:11.827Z,1.87
2019-05-26T00:09:40.065Z,1.80
2019-05-26T00:12:08.329Z,1.40
2019-05-26T00:14:36.613Z,1.83
2019-05-26T00:17:04.875Z,2.03
2019-05-26T00:19:33.121Z,1.53
2019-05-26T00:22:01.472Z,2.07
2019-05-26T00:24:29.769Z,1.57
2019-05-26T00:27:17.500Z,2.10
2019-05-26T00:29:48.660Z,1.97
2019-05-26T00:32:16.918Z,1.77
2019-05-26T00:34:45.494Z,1.70
2019-05-26T00:37:13.807Z,1.70
2019-05-26T00:39:42.256Z,1.40
2019-05-26T00:42:10.581Z,2.10
2019-05-26T00:44:38.884Z,1.60
2019-05-26T00:47:07.372Z,1.40
2019-05-26T00:49:35.674Z,2.00
2019-05-26T00:52:04.212Z,1.40
2019-05-26T00:54:32.620Z,1.70
2019-05-26T00:57:00.925Z,1.47
2019-05-26T00:59:29.233Z,1.60
2019-05-26T01:01:57.638Z,1.37
2019-05-26T01:04:26.048Z,1.50
2019-05-26T01:06:54.430Z,1.27
2019-05-26T01:09:22.770Z,1.30
2019-05-26T01:11:51.044Z,1.67
2019-05-26T01:14:19.400Z,1.63
2019-05-26T01:16:47.660Z,1.60
2019-05-26T01:19:15.917Z,1.87
2019-05-26T01:21:44.336Z,1.70
2019-05-26T01:24:12.580Z,1.57
2019-05-26T01:26:40.888Z,1.60
2019-05-26T01:29:09.117Z,2.40
2019-05-26T01:31:37.385Z,2.20
2019-05-26T01:34:05.626Z,1.57
2019-05-26T01:36:33.898Z,1.90
2019-05-26T01:39:02.196Z,1.70
2019-05-26T01:41:30.451Z,1.73
2019-05-26T01:43:58.743Z,2.43
2019-05-26T01:46:27.010Z,1.70
2019-05-26T01:48:55.287Z,2.10
2019-05-26T01:51:23.584Z,1.77
2019-05-26T01:53:51.929Z,1.80
2019-05-26T01:56:20.226Z,1.90
2019-05-26T01:58:48.481Z,1.53
2019-05-26T02:01:16.811Z,1.67
2019-05-26T02:03:45.039Z,2.00
2019-05-26T02:06:13.280Z,1.87
2019-05-26T02:08:41.561Z,1.53
2019-05-26T02:11:09.837Z,2.10
2019-05-26T02:13:38.117Z,2.17
2019-05-26T02:16:06.385Z,1.77
2019-05-26T02:18:34.668Z,1.70
2019-05-26T02:21:02.909Z,2.00
2019-05-26T02:23:31.225Z,2.20
2019-05-26T02:25:59.546Z,2.23
2019-05-26T02:28:27.849Z,2.20
2019-05-26T02:30:56.188Z,1.90
2019-05-26T02:33:24.452Z,1.70
2019-05-26T02:35:52.752Z,1.93
2019-05-26T02:38:25.730Z,1.90
2019-05-26T02:40:51.020Z,1.27
2019-05-26T02:43:19.343Z,1.70
2019-05-26T02:45:47.608Z,1.90
2019-05-26T02:48:15.929Z,1.40
2019-05-26T02:50:44.339Z,2.20
2019-05-26T02:53:12.607Z,2.20
2019-05-26T02:55:40.904Z,1.37
2019-05-26T02:58:09.158Z,1.90
2019-05-26T03:00:42.898Z,1.80
2019-05-26T03:03:11.884Z,1.87
2019-05-26T03:05:41.294Z,1.67
2019-05-26T03:08:09.550Z,1.43
2019-05-26T03:10:37.920Z,1.50
2019-05-26T03:13:06.163Z,1.57
2019-05-26T03:15:35.024Z,1.70
2019-05-26T03:18:06.809Z,2.20
2019-05-26T03:20:40.275Z,1.70
2019-05-26T03:23:08.701Z,1.43
2019-05-26T03:25:37.459Z,1.73
2019-05-26T03:28:06.797Z,1.60
2019-05-26T03:30:36.838Z,1.90
2019-05-26T03:33:05.295Z,1.80
2019-05-26T03:35:33.587Z,1.97
2019-05-26T03:38:01.869Z,1.87
2019-05-26T03:40:30.135Z,1.90
2019-05-26T03:42:58.408Z,1.70
2019-05-26T03:45:38.605Z,1.63
2019-05-26T03:48:06.915Z,1.63
2019-05-26T03:50:35.141Z,1.90
2019-05-26T03:53:03.410Z,2.07
2019-05-26T03:55:31.658Z,1.77
2019-05-26T03:57:59.950Z,2.00
2019-05-26T04:00:28.287Z,2.17
2019-05-26T04:02:56.527Z,1.60
2019-05-26T04:05:24.879Z,1.90
2019-05-26T04:07:53.142Z,1.57
2019-05-26T04:10:21.610Z,1.40
2019-05-26T04:12:49.870Z,1.47
2019-05-26T04:15:18.333Z,2.10
2019-05-26T04:17:46.593Z,1.90
2019-05-26T04:20:14.932Z,1.40
2019-05-26T04:22:43.252Z,1.50
2019-05-26T04:25:11.535Z,1.57
2019-05-26T04:27:39.867Z,1.07
2019-05-26T04:30:08.248Z,1.60
2019-05-26T04:32:36.523Z,1.60
2019-05-26T04:35:07.730Z,1.13
2019-05-26T04:37:36.020Z,1.30
2019-05-26T04:40:25.128Z,2.10
2019-05-26T04:42:57.035Z,1.47
2019-05-26T04:45:25.425Z,1.67
2019-05-26T04:48:13.182Z,2.30
2019-05-26T04:50:41.471Z,1.83
2019-05-26T04:53:09.728Z,1.53
2019-05-26T04:55:38.022Z,1.60
2019-05-26T04:58:06.317Z,1.40
2019-05-26T05:00:34.746Z,1.87
2019-05-26T05:03:03.113Z,1.77
2019-05-26T05:05:31.463Z,1.87
2019-05-26T05:07:59.724Z,1.50
2019-05-26T05:10:41.336Z,1.70
2019-05-26T05:12:58.034Z,1.67
2019-05-26T05:15:26.321Z,1.67
2019-05-26T05:17:54.605Z,1.50
2019-05-26T05:20:22.871Z,1.67
2019-05-26T05:22:51.135Z,1.43
2019-05-26T05:25:19.431Z,2.00
2019-05-26T05:27:47.671Z,1.57
2019-05-26T05:30:15.940Z,1.80
2019-05-26T05:32:44.219Z,1.60
2019-05-26T05:35:12.481Z,1.30
2019-05-26T05:37:40.750Z,2.13
2019-05-26T05:40:09.227Z,1.60
2019-05-26T05:42:37.557Z,1.20
2019-05-26T05:45:08.040Z,1.50
2019-05-26T05:47:36.371Z,1.53
2019-05-26T05:50:08.379Z,1.80
2019-05-26T05:52:36.673Z,1.83
2019-05-26T05:55:05.833Z,1.77
2019-05-26T05:57:34.069Z,1.80
2019-05-26T06:00:02.331Z,1.60
2019-05-26T06:02:30.577Z,1.77
2019-05-26T06:04:58.929Z,2.07
2019-05-26T06:07:27.174Z,1.67
2019-05-26T06:09:55.527Z,1.57
2019-05-26T06:12:23.826Z,2.00
2019-05-26T06:14:52.136Z,1.53
2019-05-26T06:17:20.370Z,1.40
2019-05-26T06:19:48.817Z,3.10
2019-05-26T06:22:17.152Z,2.00
2019-05-26T06:24:45.462Z,3.43
2019-05-26T06:27:13.758Z,3.10
2019-05-26T06:29:55.976Z,2.27
2019-05-26T06:32:13.052Z,2.47
2019-05-26T06:34:41.511Z,2.40
2019-05-26T06:37:09.840Z,2.10
2019-05-26T06:39:38.126Z,1.97
2019-05-26T06:42:06.831Z,2.10
2019-05-26T06:44:52.009Z,2.33
2019-05-26T06:47:05.078Z,1.70
2019-05-26T06:49:33.423Z,1.40
2019-05-26T06:52:01.666Z,1.97
2019-05-26T06:54:29.945Z,2.57
2019-05-26T06:56:58.239Z,2.23
2019-05-26T06:59:26.570Z,2.00
2019-05-26T07:01:54.820Z,3.17
2019-05-26T07:04:23.066Z,2.87
2019-05-26T07:06:51.433Z,13.07
2019-05-26T07:09:19.798Z,6.33
2019-05-26T07:11:55.866Z,3.80
2019-05-26T07:14:18.190Z,3.70
2019-05-26T07:16:46.472Z,4.47
2019-05-26T07:19:14.730Z,4.73
2019-05-26T07:21:43.016Z,3.27
2019-05-26T07:24:11.260Z,4.13
2019-05-26T07:26:39.560Z,3.17
2019-05-26T07:29:07.808Z,3.57
2019-05-26T07:31:36.147Z,2.43
2019-05-26T07:34:04.444Z,2.40
2019-05-26T07:36:32.736Z,3.07
2019-05-26T07:39:01.062Z,2.30
2019-05-26T07:41:29.457Z,3.20
2019-05-26T07:43:57.731Z,3.10
2019-05-26T07:46:26.741Z,2.77
2019-05-26T07:48:55.047Z,2.33
2019-05-26T07:51:23.295Z,3.20
2019-05-26T07:53:51.586Z,8.30
2019-05-26T07:56:19.833Z,3.60
2019-05-26T07:58:48.113Z,3.27
2019-05-26T08:01:16.443Z,4.00
2019-05-26T08:03:44.683Z,2.40
2019-05-26T08:06:12.946Z,2.23
2019-05-26T08:08:41.217Z,4.60
2019-05-26T08:11:09.552Z,4.00
2019-05-26T08:13:37.842Z,3.67
2019-05-26T08:16:06.105Z,4.40
2019-05-26T08:18:34.388Z,3.30
2019-05-26T08:21:02.673Z,2.67
2019-05-26T08:23:30.955Z,2.60
2019-05-26T08:26:00.928Z,3.60
2019-05-26T08:28:29.227Z,3.63
2019-05-26T08:30:57.474Z,3.57
2019-05-26T08:33:25.795Z,3.10
2019-05-26T08:35:54.083Z,3.87
2019-05-26T08:38:22.354Z,3.77
2019-05-26T08:40:50.635Z,3.23
2019-05-26T08:43:18.906Z,2.87
2019-05-26T08:45:47.143Z,3.27
2019-05-26T08:48:15.612Z,3.83
2019-05-26T08:50:43.897Z,3.80
2019-05-26T08:53:12.143Z,2.40
2019-05-26T08:55:40.405Z,4.47
2019-05-26T08:58:08.663Z,3.17
2019-05-26T09:00:36.922Z,2.40
2019-05-26T09:03:05.180Z,3.27
2019-05-26T09:05:33.701Z,3.40
2019-05-26T09:08:01.946Z,2.43
2019-05-26T09:10:30.245Z,2.87
2019-05-26T09:13:01.272Z,2.60
2019-05-26T09:15:28.529Z,2.83
2019-05-26T09:17:56.769Z,2.90
2019-05-26T09:20:26.158Z,2.20
2019-05-26T09:22:54.390Z,2.73
2019-05-26T09:25:22.639Z,3.40
2019-05-26T09:27:50.930Z,3.90
2019-05-26T09:30:20.998Z,3.43
2019-05-26T09:32:49.316Z,3.93
2019-05-26T09:35:17.578Z,3.80
2019-05-26T09:37:45.830Z,3.53
2019-05-26T09:40:14.105Z,3.67
2019-05-26T09:42:45.743Z,3.40
2019-05-26T09:45:15.636Z,3.30
2019-05-26T09:47:43.972Z,3.00
2019-05-26T09:50:12.285Z,3.90
2019-05-26T09:52:40.594Z,2.40
2019-05-26T09:55:09.117Z,2.67
2019-05-26T09:57:37.404Z,3.53
2019-05-26T10:00:06.826Z,2.40
2019-05-26T10:02:35.132Z,3.10
2019-05-26T10:05:04.910Z,3.10
2019-05-26T10:07:33.168Z,3.93
2019-05-26T10:10:01.444Z,3.80
2019-05-26T10:12:29.774Z,2.73
2019-05-26T10:14:58.082Z,3.20
2019-05-26T10:17:26.357Z,2.37
2019-05-26T10:19:55.882Z,2.77
2019-05-26T10:22:24.190Z,2.50
2019-05-26T10:24:54.084Z,2.23
2019-05-26T10:27:22.378Z,2.90
2019-05-26T10:29:50.648Z,2.50
2019-05-26T10:32:18.928Z,2.70
2019-05-26T10:34:47.191Z,2.80
2019-05-26T10:37:15.469Z,1.63
2019-05-26T10:39:45.213Z,2.77
2019-05-26T10:42:13.681Z,2.20
2019-05-26T10:44:41.965Z,1.90
2019-05-26T10:47:10.209Z,1.93
2019-05-26T10:49:38.572Z,1.80
2019-05-26T10:52:07.180Z,2.07
2019-05-26T10:54:35.472Z,2.40
2019-05-26T10:57:03.730Z,1.90
2019-05-26T10:59:32.021Z,1.97
2019-05-26T11:02:00.293Z,2.10
2019-05-26T11:04:28.608Z,2.20
2019-05-26T11:06:56.843Z,1.37
2019-05-26T11:09:25.143Z,2.30
2019-05-26T11:11:53.384Z,1.80
2019-05-26T11:14:21.673Z,2.47
2019-05-26T11:16:49.967Z,1.73
2019-05-26T11:19:18.441Z,1.37
2019-05-26T11:21:46.763Z,2.43
2019-05-26T11:24:15.033Z,1.10
2019-05-26T11:26:43.302Z,1.33
2019-05-26T11:29:11.685Z,1.80
2019-05-26T11:31:39.967Z,1.80
2019-05-26T11:34:08.308Z,1.80
2019-05-26T11:36:36.572Z,1.47
2019-05-26T11:39:27.311Z,1.37
2019-05-26T11:41:55.584Z,1.30
2019-05-26T11:44:23.844Z,1.70
2019-05-26T11:46:52.245Z,1.50
2019-05-26T11:49:20.474Z,1.40
2019-05-26T11:51:48.775Z,1.50
2019-05-26T11:54:17.022Z,1.33
2019-05-26T11:56:45.322Z,1.90
2019-05-26T11:59:13.582Z,1.07
2019-05-26T12:01:41.867Z,1.83
2019-05-26T12:04:10.253Z,1.43
2019-05-26T12:06:38.517Z,1.50
2019-05-26T12:09:08.729Z,1.43
2019-05-26T12:11:36.973Z,1.17
2019-05-26T12:14:05.415Z,1.50
2019-05-26T12:16:33.675Z,1.83
2019-05-26T12:19:01.957Z,1.43
2019-05-26T12:21:30.243Z,3.20
2019-05-26T12:23:58.595Z,1.70
2019-05-26T12:26:26.836Z,1.13
2019-05-26T12:28:55.174Z,1.60
2019-05-26T12:31:23.453Z,1.40
2019-05-26T12:33:51.715Z,1.17
2019-05-26T12:36:19.994Z,1.53
2019-05-26T12:38:51.059Z,1.70
2019-05-26T12:41:22.932Z,1.10
2019-05-26T12:43:51.278Z,1.40
2019-05-26T12:46:19.572Z,1.13
2019-05-26T12:48:47.869Z,1.53
2019-05-26T12:51:16.170Z,1.90
2019-05-26T12:53:44.543Z,1.40
2019-05-26T12:56:13.227Z,1.30
2019-05-26T12:58:41.518Z,1.40
2019-05-26T13:01:29.215Z,1.00
2019-05-26T13:03:57.486Z,1.63
2019-05-26T13:06:25.757Z,1.50
2019-05-26T13:08:54.014Z,1.53
2019-05-26T13:11:22.990Z,0.90
2019-05-26T13:13:51.414Z,1.80
2019-05-26T13:16:19.680Z,1.20
2019-05-26T13:18:47.956Z,1.30
2019-05-26T13:21:16.202Z,2.03
2019-05-26T13:23:44.509Z,1.67
2019-05-26T13:26:12.822Z,1.83
2019-05-26T13:28:41.072Z,1.80
2019-05-26T13:31:09.319Z,1.63
2019-05-26T13:33:37.592Z,1.77
2019-05-26T13:36:05.846Z,1.57
2019-05-26T13:38:34.118Z,2.43
2019-05-26T13:41:02.414Z,1.60
2019-05-26T13:43:30.673Z,1.33
2019-05-26T13:45:58.968Z,1.60
2019-05-26T13:48:27.238Z,1.63
2019-05-26T13:50:55.504Z,1.67
2019-05-26T13:53:23.800Z,1.90
2019-05-26T13:55:52.142Z,2.07
2019-05-26T13:58:20.435Z,1.57
2019-05-26T14:00:48.726Z,2.40
2019-05-26T14:03:16.992Z,1.63
2019-05-26T14:05:45.264Z,1.70
2019-05-26T14:08:13.520Z,2.17
2019-05-26T14:10:41.837Z,1.60
2019-05-26T14:13:10.154Z,1.77
2019-05-26T14:15:39.461Z,1.10
2019-05-26T14:18:07.940Z,1.10
2019-05-26T14:20:38.712Z,2.20
2019-05-26T14:23:07.626Z,1.37
2019-05-26T14:25:35.938Z,1.20
2019-05-26T14:28:05.022Z,1.03
2019-05-26T14:30:33.327Z,1.40
2019-05-26T14:33:01.621Z,1.13
2019-05-26T14:35:29.893Z,1.43
2019-05-26T14:37:58.169Z,1.63
2019-05-26T14:40:26.808Z,1.30
2019-05-26T14:42:55.085Z,1.00
2019-05-26T14:45:23.334Z,1.23
2019-05-26T14:47:51.587Z,1.20
2019-05-26T14:50:19.889Z,1.70
2019-05-26T14:52:48.223Z,0.97
2019-05-26T14:55:35.892Z,1.00
2019-05-26T14:58:15.172Z,1.13
2019-05-26T15:00:36.399Z,1.13
2019-05-26T15:03:05.005Z,1.70
2019-05-26T15:05:33.244Z,1.03
2019-05-26T15:08:01.538Z,1.53
2019-05-26T15:10:29.808Z,1.27
2019-05-26T15:12:58.142Z,1.00
2019-05-26T15:15:26.474Z,1.13
2019-05-26T15:17:54.776Z,1.47
2019-05-26T15:20:23.027Z,1.47
2019-05-26T15:22:51.352Z,1.43
2019-05-26T15:25:19.601Z,1.13
2019-05-26T15:27:47.949Z,0.90
2019-05-26T15:30:16.208Z,2.20
2019-05-26T15:32:44.469Z,3.37
2019-05-26T15:35:12.729Z,2.83
2019-05-26T15:37:41.047Z,2.57
2019-05-26T15:40:11.299Z,4.17
2019-05-26T15:42:39.549Z,2.60
2019-05-26T15:45:07.939Z,2.40
2019-05-26T15:47:36.262Z,2.97
2019-05-26T15:50:06.466Z,2.03
2019-05-26T15:52:34.770Z,2.37
2019-05-26T15:55:02.998Z,2.67
2019-05-26T15:57:31.427Z,2.20
2019-05-26T15:59:59.870Z,2.17
2019-05-26T16:02:28.197Z,1.63
2019-05-26T16:04:58.920Z,2.10
2019-05-26T16:07:26.582Z,2.17
2019-05-26T16:09:54.830Z,3.00
2019-05-26T16:12:23.131Z,2.00
2019-05-26T16:14:51.367Z,2.77
2019-05-26T16:17:19.656Z,2.00
2019-05-26T16:19:47.918Z,1.40
2019-05-26T16:22:16.220Z,2.53
2019-05-26T16:24:44.467Z,2.60
2019-05-26T16:27:19.151Z,1.97
2019-05-26T16:29:42.843Z,1.40
2019-05-26T16:32:11.207Z,2.10
2019-05-26T16:34:39.528Z,2.37
2019-05-26T16:37:07.809Z,2.63
2019-05-26T16:39:37.361Z,2.27
2019-05-26T16:42:05.817Z,1.97
2019-05-26T16:44:34.098Z,2.30
2019-05-26T16:47:02.402Z,2.50
2019-05-26T16:49:30.677Z,3.30
2019-05-26T16:51:58.968Z,2.30
2019-05-26T16:54:27.219Z,2.30
2019-05-26T16:56:55.514Z,2.37
2019-05-26T16:59:23.782Z,1.63
2019-05-26T17:01:52.041Z,1.57
2019-05-26T17:04:20.278Z,1.60
2019-05-26T17:06:48.570Z,3.30
2019-05-26T17:09:16.817Z,2.00
2019-05-26T17:11:45.104Z,1.67
2019-05-26T17:14:13.347Z,1.27
2019-05-26T17:16:41.619Z,2.20
2019-05-26T17:19:09.868Z,2.47
2019-05-26T17:21:38.160Z,2.70
2019-05-26T17:24:06.510Z,2.40
2019-05-26T17:26:35.251Z,4.37
2019-05-26T17:29:03.540Z,5.13
2019-05-26T17:31:31.848Z,4.43
2019-05-26T17:34:00.105Z,2.43
2019-05-26T17:36:28.357Z,4.57
2019-05-26T17:38:56.673Z,3.50
2019-05-26T17:41:24.910Z,2.33
2019-05-26T17:43:53.237Z,1.90
2019-05-26T17:46:21.481Z,1.83
2019-05-26T17:48:49.756Z,1.97
2019-05-26T17:51:18.059Z,2.50
2019-05-26T17:53:46.324Z,1.73
2019-05-26T17:56:14.601Z,1.80
2019-05-26T17:58:42.849Z,2.97
2019-05-26T18:01:11.233Z,2.43
2019-05-26T18:03:39.583Z,2.92
2019-05-26T18:06:08.151Z,2.20
2019-05-26T18:08:37.027Z,1.50
2019-05-26T18:11:05.849Z,2.73
2019-05-26T18:13:34.100Z,2.63
2019-05-26T18:16:02.466Z,2.10
2019-05-26T18:18:30.819Z,1.63
2019-05-26T18:20:59.100Z,2.37
2019-05-26T18:23:27.325Z,2.10
2019-05-26T18:25:55.617Z,1.87
2019-05-26T18:28:23.931Z,2.10
2019-05-26T18:30:52.411Z,1.77
2019-05-26T18:33:20.750Z,2.30
2019-05-26T18:35:49.036Z,1.50
2019-05-26T18:38:17.399Z,1.63
2019-05-26T18:40:45.663Z,1.83
2019-05-26T18:43:13.919Z,2.20
2019-05-26T18:45:42.245Z,1.53
2019-05-26T18:48:10.489Z,1.17
2019-05-26T18:50:38.816Z,1.00
2019-05-26T18:53:07.075Z,1.70
2019-05-26T18:55:35.385Z,0.80
2019-05-26T18:58:03.732Z,1.60
2019-05-26T19:00:32.194Z,1.37
2019-05-26T19:03:00.504Z,1.97
2019-05-26T19:05:33.854Z,1.80
2019-05-26T19:08:00.730Z,1.63
2019-05-26T19:10:28.782Z,2.30
2019-05-26T19:12:57.056Z,1.93
2019-05-26T19:15:25.593Z,1.17
2019-05-26T19:17:53.845Z,1.00
2019-05-26T19:20:22.114Z,1.20
2019-05-26T19:22:53.295Z,1.90
2019-05-26T19:25:20.425Z,1.37
2019-05-26T19:27:48.924Z,1.20
2019-05-26T19:30:17.286Z,1.37
2019-05-26T19:32:45.608Z,1.87
2019-05-26T19:35:13.912Z,1.73
2019-05-26T19:37:42.138Z,1.53
2019-05-26T19:40:10.504Z,1.60
2019-05-26T19:42:38.807Z,1.20
2019-05-26T19:45:07.054Z,1.83
2019-05-26T19:47:35.399Z,1.33
2019-05-26T19:50:06.084Z,1.53
2019-05-26T19:52:34.462Z,1.73
2019-05-26T19:55:03.155Z,2.03
2019-05-26T19:57:31.512Z,1.60
2019-05-26T19:59:59.855Z,1.60
2019-05-26T20:02:28.119Z,1.47
2019-05-26T20:04:56.417Z,1.20
2019-05-26T20:07:24.680Z,1.20
2019-05-26T20:09:52.952Z,1.60
2019-05-26T20:12:21.210Z,1.07
2019-05-26T20:14:49.471Z,1.67
2019-05-26T20:17:17.778Z,1.03
2019-05-26T20:19:46.040Z,1.20
2019-05-26T20:22:14.292Z,1.30
2019-05-26T20:24:42.582Z,2.10
2019-05-26T20:27:10.849Z,2.07
2019-05-26T20:29:39.765Z,2.07
2019-05-26T20:32:08.409Z,1.57
2019-05-26T20:34:37.039Z,1.53
2019-05-26T20:37:06.150Z,1.10
2019-05-26T20:39:34.727Z,1.00
2019-05-26T20:42:03.044Z,1.77
2019-05-26T20:44:31.291Z,1.70
2019-05-26T20:46:59.597Z,1.30
2019-05-26T20:49:42.454Z,1.60
2019-05-26T20:51:58.074Z,1.90
2019-05-26T20:54:26.449Z,2.00
2019-05-26T20:56:54.752Z,1.57
2019-05-26T20:59:23.367Z,1.73
2019-05-26T21:01:51.756Z,1.63
2019-05-26T21:04:19.983Z,2.30
2019-05-26T21:06:48.295Z,1.80
2019-05-26T21:09:16.635Z,1.50
2019-05-26T21:11:44.913Z,1.90
2019-05-26T21:14:32.597Z,1.80
2019-05-26T21:17:00.899Z,1.80
2019-05-26T21:19:29.249Z,1.70
2019-05-26T21:21:57.530Z,2.03
2019-05-26T21:24:25.787Z,2.17
2019-05-26T21:26:54.080Z,2.00
2019-05-26T21:29:22.381Z,2.13
2019-05-26T21:31:50.655Z,2.07
2019-05-26T21:34:18.943Z,2.73
2019-05-26T21:36:47.174Z,2.20
2019-05-26T21:39:15.461Z,2.07
2019-05-26T21:41:43.717Z,2.20
2019-05-26T21:44:12.049Z,2.00
2019-05-26T21:46:40.302Z,2.40
2019-05-26T21:49:08.593Z,1.70
2019-05-26T21:51:36.929Z,2.77
2019-05-26T21:54:05.213Z,2.30
2019-05-26T21:56:33.516Z,1.87
2019-05-26T21:59:01.758Z,2.40
2019-05-26T22:01:30.041Z,2.70
2019-05-26T22:03:58.300Z,1.60
2019-05-26T22:06:26.578Z,1.87
2019-05-26T22:08:54.833Z,2.80
2019-05-26T22:11:23.117Z,2.50
2019-05-26T22:13:51.375Z,2.80
2019-05-26T22:16:19.689Z,1.93
2019-05-26T22:18:47.943Z,3.20
2019-05-26T22:21:16.297Z,1.83
2019-05-26T22:23:44.568Z,1.77
2019-05-26T22:26:12.830Z,2.07
2019-05-26T22:28:41.086Z,1.83
2019-05-26T22:31:09.386Z,2.40
2019-05-26T22:33:37.707Z,2.90
2019-05-26T22:36:06.006Z,2.40
2019-05-26T22:38:34.368Z,2.17
2019-05-26T22:41:02.727Z,2.60
2019-05-26T22:43:30.982Z,1.90
2019-05-26T22:45:59.377Z,2.30
2019-05-26T22:48:27.786Z,2.83
2019-05-26T22:50:56.078Z,2.47
2019-05-26T22:53:24.339Z,1.73
2019-05-26T22:55:52.628Z,2.10
2019-05-26T22:58:20.868Z,2.27
2019-05-26T23:00:49.146Z,2.40
2019-05-26T23:03:17.436Z,2.67
2019-05-26T23:05:45.658Z,1.90
2019-05-26T23:08:13.929Z,2.10
2019-05-26T23:10:43.011Z,1.80
2019-05-26T23:13:11.306Z,1.80
2019-05-26T23:15:39.588Z,1.80
2019-05-26T23:18:07.841Z,1.63
2019-05-26T23:20:36.115Z,1.50
2019-05-26T23:23:04.380Z,1.40
2019-05-26T23:25:32.658Z,1.90
2019-05-26T23:28:01.082Z,1.73
2019-05-26T23:30:29.347Z,1.37
2019-05-26T23:32:57.621Z,2.50
2019-05-26T23:35:25.895Z,2.23
2019-05-26T23:37:54.146Z,1.60
2019-05-26T23:40:22.578Z,1.20
2019-05-26T23:42:50.908Z,1.73
2019-05-26T23:45:19.169Z,2.87
2019-05-26T23:47:47.420Z,1.57
2019-05-26T23:50:15.698Z,1.47
2019-05-26T23:52:43.958Z,1.50
2019-05-26T23:55:12.249Z,1.90
2019-05-26T23:57:40.509Z,1.40
